sensor_id;sensor_type;location;lat;lon;timestamp;pressure;altitude;pressure_sealevel;temperature;humidity
9969;BME280;5025;48.890;9.278;2022-12-18T00:00:57;99994.38;;;-7.98;69.60
9969;BME280;5025;48.890;9.278;2022-12-18T00:03:25;99995.28;;;-7.99;69.58
9969;BME280;5025;48.890;9.278;2022-12-18T00:05:51;100011.09;;;-8.00;69.53
9969;BME280;5025;48.890;9.278;2022-12-18T00:08:18;99999.84;;;-8.02;69.75
9969;BME280;5025;48.890;9.278;2022-12-18T00:10:44;99998.06;;;-8.02;69.82
9969;BME280;5025;48.890;9.278;2022-12-18T00:13:10;100004.16;;;-8.01;69.58
9969;BME280;5025;48.890;9.278;2022-12-18T00:15:37;99997.38;;;-8.05;69.65
9969;BME280;5025;48.890;9.278;2022-12-18T00:18:03;99999.22;;;-8.07;69.51
9969;BME280;5025;48.890;9.278;2022-12-18T00:20:29;99993.16;;;-8.08;69.36
9969;BME280;5025;48.890;9.278;2022-12-18T00:22:54;100004.47;;;-8.07;69.30
9969;BME280;5025;48.890;9.278;2022-12-18T00:25:20;100005.41;;;-8.08;69.37
9969;BME280;5025;48.890;9.278;2022-12-18T00:27:46;100010.03;;;-8.14;69.22
9969;BME280;5025;48.890;9.278;2022-12-18T00:30:12;100004.03;;;-8.16;69.37
9969;BME280;5025;48.890;9.278;2022-12-18T00:32:37;100007.31;;;-8.12;69.60
9969;BME280;5025;48.890;9.278;2022-12-18T00:35:03;100003.94;;;-8.14;69.41
9969;BME280;5025;48.890;9.278;2022-12-18T00:37:29;100003.88;;;-8.13;69.32
9969;BME280;5025;48.890;9.278;2022-12-18T00:39:54;100000.34;;;-8.12;69.21
9969;BME280;5025;48.890;9.278;2022-12-18T00:42:20;100009.09;;;-8.13;69.22
9969;BME280;5025;48.890;9.278;2022-12-18T00:45:04;100008.34;;;-8.15;69.17
9969;BME280;5025;48.890;9.278;2022-12-18T00:47:29;100007.56;;;-8.17;69.09
9969;BME280;5025;48.890;9.278;2022-12-18T00:49:54;100012.03;;;-8.19;69.22
9969;BME280;5025;48.890;9.278;2022-12-18T00:52:20;100001.56;;;-8.19;69.11
9969;BME280;5025;48.890;9.278;2022-12-18T00:54:45;100001.72;;;-8.22;68.96
9969;BME280;5025;48.890;9.278;2022-12-18T00:57:10;99992.16;;;-8.23;68.93
9969;BME280;5025;48.890;9.278;2022-12-18T00:59:36;99998.25;;;-8.22;68.96
9969;BME280;5025;48.890;9.278;2022-12-18T01:02:01;100003.75;;;-8.27;69.12
9969;BME280;5025;48.890;9.278;2022-12-18T01:04:26;100007.66;;;-8.36;69.18
9969;BME280;5025;48.890;9.278;2022-12-18T01:06:51;100006.13;;;-8.40;69.24
9969;BME280;5025;48.890;9.278;2022-12-18T01:09:17;100000.97;;;-8.41;68.92
9969;BME280;5025;48.890;9.278;2022-12-18T01:11:42;100000.13;;;-8.42;69.06
9969;BME280;5025;48.890;9.278;2022-12-18T01:14:07;100006.28;;;-8.43;68.85
9969;BME280;5025;48.890;9.278;2022-12-18T01:16:33;100006.38;;;-8.44;69.02
9969;BME280;5025;48.890;9.278;2022-12-18T01:18:58;100015.25;;;-8.47;68.92
9969;BME280;5025;48.890;9.278;2022-12-18T01:21:24;100015.72;;;-8.56;68.82
9969;BME280;5025;48.890;9.278;2022-12-18T01:23:55;100021.94;;;-8.59;68.94
9969;BME280;5025;48.890;9.278;2022-12-18T01:26:22;100018.41;;;-8.58;68.94
9969;BME280;5025;48.890;9.278;2022-12-18T01:28:48;100022.63;;;-8.55;69.08
9969;BME280;5025;48.890;9.278;2022-12-18T01:31:20;100024.41;;;-8.56;68.84
9969;BME280;5025;48.890;9.278;2022-12-18T01:33:47;100025.19;;;-8.54;68.77
9969;BME280;5025;48.890;9.278;2022-12-18T01:36:20;100019.72;;;-8.49;69.05
9969;BME280;5025;48.890;9.278;2022-12-18T01:38:47;100018.72;;;-8.47;68.82
9969;BME280;5025;48.890;9.278;2022-12-18T01:41:13;100028.38;;;-8.47;68.99
9969;BME280;5025;48.890;9.278;2022-12-18T01:43:46;100025.75;;;-8.47;68.87
9969;BME280;5025;48.890;9.278;2022-12-18T01:46:13;100020.66;;;-8.50;69.03
9969;BME280;5025;48.890;9.278;2022-12-18T01:48:39;100017.25;;;-8.52;69.04
9969;BME280;5025;48.890;9.278;2022-12-18T01:51:06;100023.34;;;-8.52;69.02
9969;BME280;5025;48.890;9.278;2022-12-18T01:53:33;100019.72;;;-8.49;68.96
9969;BME280;5025;48.890;9.278;2022-12-18T01:55:59;100027.81;;;-8.54;68.92
9969;BME280;5025;48.890;9.278;2022-12-18T01:58:32;100015.25;;;-8.65;68.22
9969;BME280;5025;48.890;9.278;2022-12-18T02:01:01;100010.16;;;-8.68;68.87
9969;BME280;5025;48.890;9.278;2022-12-18T02:03:26;100012.69;;;-8.66;68.71
9969;BME280;5025;48.890;9.278;2022-12-18T02:11:24;100015.88;;;-8.59;68.91
9969;BME280;5025;48.890;9.278;2022-12-18T02:13:55;100007.06;;;-8.58;68.92
9969;BME280;5025;48.890;9.278;2022-12-18T02:16:31;100016.88;;;-8.62;68.57
9969;BME280;5025;48.890;9.278;2022-12-18T02:19:04;100011.56;;;-8.60;68.84
9969;BME280;5025;48.890;9.278;2022-12-18T02:24:32;100023.88;;;-8.62;68.72
9969;BME280;5025;48.890;9.278;2022-12-18T02:27:03;100027.19;;;-8.59;68.99
9969;BME280;5025;48.890;9.278;2022-12-18T02:29:39;100029.13;;;-8.62;68.92
9969;BME280;5025;48.890;9.278;2022-12-18T02:32:09;100029.34;;;-8.67;68.93
9969;BME280;5025;48.890;9.278;2022-12-18T02:34:38;100021.66;;;-8.70;68.75
9969;BME280;5025;48.890;9.278;2022-12-18T02:37:09;100028.56;;;-8.69;68.76
9969;BME280;5025;48.890;9.278;2022-12-18T02:39:37;100027.72;;;-8.70;68.70
9969;BME280;5025;48.890;9.278;2022-12-18T02:42:03;100035.56;;;-8.70;68.72
9969;BME280;5025;48.890;9.278;2022-12-18T02:44:34;100041.72;;;-8.71;68.92
9969;BME280;5025;48.890;9.278;2022-12-18T02:46:59;100030.50;;;-8.73;68.60
9969;BME280;5025;48.890;9.278;2022-12-18T02:49:36;100033.03;;;-8.71;68.81
9969;BME280;5025;48.890;9.278;2022-12-18T02:57:50;100045.09;;;-8.86;68.69
9969;BME280;5025;48.890;9.278;2022-12-18T03:00:21;100055.78;;;-8.91;69.03
9969;BME280;5025;48.890;9.278;2022-12-18T03:05:40;100055.78;;;-8.91;68.72
9969;BME280;5025;48.890;9.278;2022-12-18T03:08:14;100041.63;;;-8.87;68.91
9969;BME280;5025;48.890;9.278;2022-12-18T03:10:45;100034.63;;;-8.86;68.94
9969;BME280;5025;48.890;9.278;2022-12-18T03:13:21;100047.56;;;-8.83;68.94
9969;BME280;5025;48.890;9.278;2022-12-18T03:15:51;100047.41;;;-8.80;68.97
9969;BME280;5025;48.890;9.278;2022-12-18T03:18:25;100041.34;;;-8.80;69.00
9969;BME280;5025;48.890;9.278;2022-12-18T03:20:55;100042.91;;;-8.76;68.77
9969;BME280;5025;48.890;9.278;2022-12-18T03:23:25;100048.81;;;-8.73;68.69
9969;BME280;5025;48.890;9.278;2022-12-18T03:25:56;100058.59;;;-8.76;68.73
9969;BME280;5025;48.890;9.278;2022-12-18T03:28:24;100057.72;;;-8.77;68.97
9969;BME280;5025;48.890;9.278;2022-12-18T03:30:53;100062.97;;;-8.77;68.84
9969;BME280;5025;48.890;9.278;2022-12-18T03:33:27;100066.47;;;-8.76;68.71
9969;BME280;5025;48.890;9.278;2022-12-18T03:35:55;100053.50;;;-8.79;68.66
9969;BME280;5025;48.890;9.278;2022-12-18T03:38:20;100058.59;;;-8.76;68.68
9969;BME280;5025;48.890;9.278;2022-12-18T03:41:08;100057.59;;;-8.74;68.78
9969;BME280;5025;48.890;9.278;2022-12-18T03:46:27;100059.06;;;-8.68;68.91
9969;BME280;5025;48.890;9.278;2022-12-18T03:49:24;100055.53;;;-8.67;68.81
9969;BME280;5025;48.890;9.278;2022-12-18T03:52:09;100058.91;;;-8.65;69.11
9969;BME280;5025;48.890;9.278;2022-12-18T03:54:36;100062.31;;;-8.63;69.08
9969;BME280;5025;48.890;9.278;2022-12-18T03:57:08;100056.97;;;-8.61;69.39
9969;BME280;5025;48.890;9.278;2022-12-18T03:59:36;100051.75;;;-8.61;69.47
9969;BME280;5025;48.890;9.278;2022-12-18T04:02:04;100045.66;;;-8.62;69.17
9969;BME280;5025;48.890;9.278;2022-12-18T04:04:33;100042.28;;;-8.64;69.18
9969;BME280;5025;48.890;9.278;2022-12-18T04:06:59;100041.28;;;-8.61;69.27
9969;BME280;5025;48.890;9.278;2022-12-18T04:09:25;100048.28;;;-8.62;69.44
9969;BME280;5025;48.890;9.278;2022-12-18T04:11:51;100045.81;;;-8.65;69.42
9969;BME280;5025;48.890;9.278;2022-12-18T04:14:17;100050.28;;;-8.67;69.46
9969;BME280;5025;48.890;9.278;2022-12-18T04:16:42;100048.59;;;-8.68;69.74
9969;BME280;5025;48.890;9.278;2022-12-18T04:19:07;100058.44;;;-8.73;69.78
9969;BME280;5025;48.890;9.278;2022-12-18T04:21:33;100056.22;;;-8.81;69.51
9969;BME280;5025;48.890;9.278;2022-12-18T04:23:58;100050.41;;;-8.88;69.90
9969;BME280;5025;48.890;9.278;2022-12-18T04:26:24;100048.50;;;-8.84;70.09
9969;BME280;5025;48.890;9.278;2022-12-18T04:28:49;100041.41;;;-8.82;69.77
9969;BME280;5025;48.890;9.278;2022-12-18T04:31:14;100047.47;;;-8.81;70.00
9969;BME280;5025;48.890;9.278;2022-12-18T04:33:40;100054.44;;;-8.80;69.92
9969;BME280;5025;48.890;9.278;2022-12-18T04:36:05;100064.91;;;-8.80;69.79
9969;BME280;5025;48.890;9.278;2022-12-18T04:38:31;100063.13;;;-8.80;69.96
9969;BME280;5025;48.890;9.278;2022-12-18T04:40:56;100064.97;;;-8.82;69.89
9969;BME280;5025;48.890;9.278;2022-12-18T04:43:21;100065.81;;;-8.81;69.87
9969;BME280;5025;48.890;9.278;2022-12-18T04:45:47;100060.56;;;-8.81;69.90
9969;BME280;5025;48.890;9.278;2022-12-18T04:48:12;100052.66;;;-8.80;69.88
9969;BME280;5025;48.890;9.278;2022-12-18T04:50:38;100057.94;;;-8.81;69.61
9969;BME280;5025;48.890;9.278;2022-12-18T04:53:03;100060.56;;;-8.81;69.84
9969;BME280;5025;48.890;9.278;2022-12-18T04:55:28;100056.13;;;-8.79;69.71
9969;BME280;5025;48.890;9.278;2022-12-18T04:57:54;100061.22;;;-8.76;69.74
9969;BME280;5025;48.890;9.278;2022-12-18T05:00:20;100053.06;;;-8.70;69.94
9969;BME280;5025;48.890;9.278;2022-12-18T05:02:45;100050.38;;;-8.69;69.77
9969;BME280;5025;48.890;9.278;2022-12-18T05:05:11;100047.69;;;-8.67;69.74
9969;BME280;5025;48.890;9.278;2022-12-18T05:07:36;100047.81;;;-8.70;69.84
9969;BME280;5025;48.890;9.278;2022-12-18T05:10:02;100054.75;;;-8.69;69.83
9969;BME280;5025;48.890;9.278;2022-12-18T05:12:28;100056.53;;;-8.70;70.15
9969;BME280;5025;48.890;9.278;2022-12-18T05:14:53;100046.13;;;-8.71;69.94
9969;BME280;5025;48.890;9.278;2022-12-18T05:17:18;100045.28;;;-8.72;70.00
9969;BME280;5025;48.890;9.278;2022-12-18T05:19:44;100053.97;;;-8.71;70.28
9969;BME280;5025;48.890;9.278;2022-12-18T05:22:09;100053.22;;;-8.73;70.22
9969;BME280;5025;48.890;9.278;2022-12-18T05:24:35;100047.25;;;-8.77;70.28
9969;BME280;5025;48.890;9.278;2022-12-18T05:27:00;100041.41;;;-8.82;70.34
9969;BME280;5025;48.890;9.278;2022-12-18T05:29:25;100046.88;;;-8.87;70.02
9969;BME280;5025;48.890;9.278;2022-12-18T05:31:51;100058.31;;;-8.89;70.32
9969;BME280;5025;48.890;9.278;2022-12-18T05:34:16;100061.09;;;-8.92;70.04
9969;BME280;5025;48.890;9.278;2022-12-18T05:36:41;100061.75;;;-9.06;70.27
9969;BME280;5025;48.890;9.278;2022-12-18T05:39:07;100070.69;;;-9.10;70.39
9969;BME280;5025;48.890;9.278;2022-12-18T05:41:32;100068.06;;;-9.10;70.10
9969;BME280;5025;48.890;9.278;2022-12-18T05:43:58;100069.72;;;-9.09;70.21
9969;BME280;5025;48.890;9.278;2022-12-18T05:46:24;100084.59;;;-9.10;70.03
9969;BME280;5025;48.890;9.278;2022-12-18T05:48:49;100082.34;;;-9.17;70.25
9969;BME280;5025;48.890;9.278;2022-12-18T05:51:18;100086.88;;;-9.21;70.06
9969;BME280;5025;48.890;9.278;2022-12-18T05:53:43;100075.06;;;-9.30;70.12
9969;BME280;5025;48.890;9.278;2022-12-18T05:56:11;100071.66;;;-9.32;70.01
9969;BME280;5025;48.890;9.278;2022-12-18T05:58:37;100082.13;;;-9.32;70.06
9969;BME280;5025;48.890;9.278;2022-12-18T06:01:11;100074.97;;;-9.28;70.17
9969;BME280;5025;48.890;9.278;2022-12-18T06:03:37;100068.00;;;-9.28;69.84
9969;BME280;5025;48.890;9.278;2022-12-18T06:06:03;100084.41;;;-9.24;70.09
9969;BME280;5025;48.890;9.278;2022-12-18T06:08:28;100074.78;;;-9.24;70.05
9969;BME280;5025;48.890;9.278;2022-12-18T06:10:53;100076.47;;;-9.23;70.14
9969;BME280;5025;48.890;9.278;2022-12-18T06:13:19;100069.53;;;-9.24;70.03
9969;BME280;5025;48.890;9.278;2022-12-18T06:15:45;100075.56;;;-9.22;69.97
9969;BME280;5025;48.890;9.278;2022-12-18T06:18:10;100071.19;;;-9.21;70.15
9969;BME280;5025;48.890;9.278;2022-12-18T06:20:36;100069.41;;;-9.21;70.14
9969;BME280;5025;48.890;9.278;2022-12-18T06:23:02;100076.97;;;-9.14;69.82
9969;BME280;5025;48.890;9.278;2022-12-18T06:25:28;100084.66;;;-9.11;69.90
9969;BME280;5025;48.890;9.278;2022-12-18T06:27:53;100087.22;;;-9.10;70.11
9969;BME280;5025;48.890;9.278;2022-12-18T06:30:18;100076.69;;;-9.08;70.22
9969;BME280;5025;48.890;9.278;2022-12-18T06:32:44;100081.00;;;-9.07;69.80
9969;BME280;5025;48.890;9.278;2022-12-18T06:35:09;100080.84;;;-9.04;69.90
9969;BME280;5025;48.890;9.278;2022-12-18T06:37:35;100083.53;;;-9.06;70.19
9969;BME280;5025;48.890;9.278;2022-12-18T06:40:00;100086.22;;;-9.07;69.83
9969;BME280;5025;48.890;9.278;2022-12-18T06:42:26;100098.66;;;-9.12;70.00
9969;BME280;5025;48.890;9.278;2022-12-18T06:44:51;100086.25;;;-9.26;70.17
9969;BME280;5025;48.890;9.278;2022-12-18T06:47:16;100094.31;;;-9.31;70.23
9969;BME280;5025;48.890;9.278;2022-12-18T06:49:42;100096.06;;;-9.31;69.95
9969;BME280;5025;48.890;9.278;2022-12-18T06:52:08;100096.06;;;-9.31;70.04
9969;BME280;5025;48.890;9.278;2022-12-18T06:54:33;100101.22;;;-9.30;69.94
9969;BME280;5025;48.890;9.278;2022-12-18T06:56:59;100110.69;;;-9.27;70.09
9969;BME280;5025;48.890;9.278;2022-12-18T06:59:24;100096.78;;;-9.28;70.40
9969;BME280;5025;48.890;9.278;2022-12-18T07:01:49;100099.31;;;-9.26;70.28
9969;BME280;5025;48.890;9.278;2022-12-18T07:04:14;100101.06;;;-9.27;70.26
9969;BME280;5025;48.890;9.278;2022-12-18T07:06:40;100102.78;;;-9.26;70.28
9969;BME280;5025;48.890;9.278;2022-12-18T07:09:05;100101.81;;;-9.23;70.13
9969;BME280;5025;48.890;9.278;2022-12-18T07:11:32;100112.19;;;-9.22;70.12
9969;BME280;5025;48.890;9.278;2022-12-18T07:13:57;100114.63;;;-9.19;70.28
9969;BME280;5025;48.890;9.278;2022-12-18T07:16:24;100113.72;;;-9.17;70.12
9969;BME280;5025;48.890;9.278;2022-12-18T07:18:49;100122.41;;;-9.17;69.88
9969;BME280;5025;48.890;9.278;2022-12-18T07:21:17;100124.97;;;-9.15;69.83
9969;BME280;5025;48.890;9.278;2022-12-18T07:23:43;100122.34;;;-9.15;69.89
9969;BME280;5025;48.890;9.278;2022-12-18T07:26:13;100125.69;;;-9.12;69.97
9969;BME280;5025;48.890;9.278;2022-12-18T07:28:40;100124.69;;;-9.09;69.98
9969;BME280;5025;48.890;9.278;2022-12-18T07:31:07;100127.22;;;-9.08;70.21
9969;BME280;5025;48.890;9.278;2022-12-18T07:33:33;100130.72;;;-9.07;70.33
9969;BME280;5025;48.890;9.278;2022-12-18T07:36:00;100142.78;;;-9.05;70.18
9969;BME280;5025;48.890;9.278;2022-12-18T07:38:25;100137.50;;;-9.03;70.26
9969;BME280;5025;48.890;9.278;2022-12-18T07:40:51;100146.22;;;-9.03;70.06
9969;BME280;5025;48.890;9.278;2022-12-18T07:43:16;100154.06;;;-9.03;69.95
9969;BME280;5025;48.890;9.278;2022-12-18T07:45:42;100140.09;;;-9.03;70.10
9969;BME280;5025;48.890;9.278;2022-12-18T07:48:07;100133.19;;;-9.04;70.24
9969;BME280;5025;48.890;9.278;2022-12-18T07:50:32;100146.97;;;-9.01;70.49
9969;BME280;5025;48.890;9.278;2022-12-18T07:52:57;100150.44;;;-9.00;70.15
9969;BME280;5025;48.890;9.278;2022-12-18T07:55:23;100145.06;;;-8.97;70.30
9969;BME280;5025;48.890;9.278;2022-12-18T07:57:48;100151.84;;;-8.93;70.45
9969;BME280;5025;48.890;9.278;2022-12-18T08:00:14;100142.94;;;-8.89;70.41
9969;BME280;5025;48.890;9.278;2022-12-18T08:02:39;100144.47;;;-8.85;70.43
9969;BME280;5025;48.890;9.278;2022-12-18T08:05:05;100146.06;;;-8.80;70.22
9969;BME280;5025;48.890;9.278;2022-12-18T08:07:30;100141.44;;;-8.75;70.41
9969;BME280;5025;48.890;9.278;2022-12-18T08:09:55;100142.94;;;-8.70;70.34
9969;BME280;5025;48.890;9.278;2022-12-18T08:12:20;100141.06;;;-8.68;70.29
9969;BME280;5025;48.890;9.278;2022-12-18T08:14:46;100138.25;;;-8.63;70.35
9969;BME280;5025;48.890;9.278;2022-12-18T08:17:11;100138.25;;;-8.63;70.34
9969;BME280;5025;48.890;9.278;2022-12-18T08:19:36;100139.94;;;-8.62;70.26
9969;BME280;5025;48.890;9.278;2022-12-18T08:22:02;100146.75;;;-8.58;70.41
9969;BME280;5025;48.890;9.278;2022-12-18T08:24:27;100142.19;;;-8.54;70.49
9969;BME280;5025;48.890;9.278;2022-12-18T08:26:53;100146.75;;;-8.58;70.42
9969;BME280;5025;48.890;9.278;2022-12-18T08:29:18;100156.34;;;-8.58;70.35
9969;BME280;5025;48.890;9.278;2022-12-18T08:31:43;100151.13;;;-8.58;70.58
9969;BME280;5025;48.890;9.278;2022-12-18T08:34:09;100145.09;;;-8.60;70.55
9969;BME280;5025;48.890;9.278;2022-12-18T08:36:34;100155.22;;;-8.53;70.54
9969;BME280;5025;48.890;9.278;2022-12-18T08:39:00;100150.69;;;-8.49;70.29
9969;BME280;5025;48.890;9.278;2022-12-18T08:41:25;100147.28;;;-8.51;70.53
9969;BME280;5025;48.890;9.278;2022-12-18T08:43:50;100141.06;;;-8.49;70.34
9969;BME280;5025;48.890;9.278;2022-12-18T08:46:39;100148.94;;;-8.49;70.12
9969;BME280;5025;48.890;9.278;2022-12-18T08:49:06;100140.13;;;-8.48;70.44
9969;BME280;5025;48.890;9.278;2022-12-18T08:51:32;100142.41;;;-8.41;70.25
9969;BME280;5025;48.890;9.278;2022-12-18T08:53:58;100144.81;;;-8.37;70.40
9969;BME280;5025;48.890;9.278;2022-12-18T08:56:23;100141.81;;;-8.29;70.26
9969;BME280;5025;48.890;9.278;2022-12-18T08:58:54;100143.16;;;-8.20;70.49
9969;BME280;5025;48.890;9.278;2022-12-18T09:01:20;100145.38;;;-8.13;70.29
9969;BME280;5025;48.890;9.278;2022-12-18T09:03:46;100137.91;;;-8.03;70.46
9969;BME280;5025;48.890;9.278;2022-12-18T09:06:14;100133.38;;;-7.99;70.25
9969;BME280;5025;48.890;9.278;2022-12-18T09:08:40;100127.13;;;-7.97;70.33
9969;BME280;5025;48.890;9.278;2022-12-18T09:11:11;100129.19;;;-7.86;70.54
9969;BME280;5025;48.890;9.278;2022-12-18T09:13:37;100126.19;;;-7.78;70.48
9969;BME280;5025;48.890;9.278;2022-12-18T09:16:03;100130.28;;;-7.72;70.44
9969;BME280;5025;48.890;9.278;2022-12-18T09:18:28;100125.84;;;-7.72;70.33
9969;BME280;5025;48.890;9.278;2022-12-18T09:20:53;100121.44;;;-7.71;70.23
9969;BME280;5025;48.890;9.278;2022-12-18T09:23:19;100127.50;;;-7.69;70.33
9969;BME280;5025;48.890;9.278;2022-12-18T09:25:45;100124.78;;;-7.68;70.34
9969;BME280;5025;48.890;9.278;2022-12-18T09:28:12;100124.78;;;-7.68;70.58
9969;BME280;5025;48.890;9.278;2022-12-18T09:30:39;100123.59;;;-7.62;70.50
9969;BME280;5025;48.890;9.278;2022-12-18T09:33:05;100112.94;;;-7.59;70.65
9969;BME280;5025;48.890;9.278;2022-12-18T09:35:30;100109.84;;;-7.50;70.79
9969;BME280;5025;48.890;9.278;2022-12-18T09:37:56;100111.38;;;-7.46;70.77
9969;BME280;5025;48.890;9.278;2022-12-18T09:40:23;100109.28;;;-7.39;70.82
9969;BME280;5025;48.890;9.278;2022-12-18T09:43:03;100103.63;;;-7.31;70.86
9969;BME280;5025;48.890;9.278;2022-12-18T09:45:37;100102.13;;;-7.19;70.75
9969;BME280;5025;48.890;9.278;2022-12-18T09:48:04;100106.19;;;-7.14;70.73
9969;BME280;5025;48.890;9.278;2022-12-18T09:50:34;100096.03;;;-7.04;70.77
9969;BME280;5025;48.890;9.278;2022-12-18T09:53:15;100090.19;;;-6.93;70.66
9969;BME280;5025;48.890;9.278;2022-12-18T09:55:45;100088.59;;;-6.80;70.67
9969;BME280;5025;48.890;9.278;2022-12-18T09:58:24;100090.53;;;-6.68;70.44
9969;BME280;5025;48.890;9.278;2022-12-18T10:00:52;100081.19;;;-6.57;70.83
9969;BME280;5025;48.890;9.278;2022-12-18T10:03:18;100079.03;;;-6.51;70.59
9969;BME280;5025;48.890;9.278;2022-12-18T10:06:11;100088.19;;;-6.42;70.94
9969;BME280;5025;48.890;9.278;2022-12-18T10:08:56;100093.44;;;-6.42;70.52
9969;BME280;5025;48.890;9.278;2022-12-18T10:11:40;100091.81;;;-6.44;71.00
9969;BME280;5025;48.890;9.278;2022-12-18T10:16:57;100083.66;;;-6.24;71.45
9969;BME280;5025;48.890;9.278;2022-12-18T10:19:50;100086.50;;;-6.13;71.30
9969;BME280;5025;48.890;9.278;2022-12-18T10:22:39;100093.38;;;-6.10;71.41
9969;BME280;5025;48.890;9.278;2022-12-18T10:25:19;100100.72;;;-6.01;71.55
9969;BME280;5025;48.890;9.278;2022-12-18T10:27:46;100101.25;;;-5.96;71.75
9969;BME280;5025;48.890;9.278;2022-12-18T10:30:14;100096.38;;;-5.87;71.65
9969;BME280;5025;48.890;9.278;2022-12-18T10:32:42;100098.63;;;-5.81;71.73
9969;BME280;5025;48.890;9.278;2022-12-18T10:35:16;100100.16;;;-5.77;71.95
9969;BME280;5025;48.890;9.278;2022-12-18T10:38:00;100091.06;;;-5.71;72.17
9969;BME280;5025;48.890;9.278;2022-12-18T10:40:26;100091.34;;;-5.62;72.20
9969;BME280;5025;48.890;9.278;2022-12-18T10:43:12;100099.81;;;-5.42;72.29
9969;BME280;5025;48.890;9.278;2022-12-18T10:45:38;100093.03;;;-5.32;72.14
9969;BME280;5025;48.890;9.278;2022-12-18T10:48:04;100091.72;;;-5.25;71.82
9969;BME280;5025;48.890;9.278;2022-12-18T10:50:33;100099.81;;;-5.28;72.32
9969;BME280;5025;48.890;9.278;2022-12-18T10:53:00;100091.72;;;-5.25;72.51
9969;BME280;5025;48.890;9.278;2022-12-18T10:55:31;100097.34;;;-5.16;72.35
9969;BME280;5025;48.890;9.278;2022-12-18T10:58:15;100088.66;;;-5.04;72.42
9969;BME280;5025;48.890;9.278;2022-12-18T11:00:41;100093.91;;;-4.90;72.37
9969;BME280;5025;48.890;9.278;2022-12-18T11:03:29;100091.16;;;-4.74;72.48
9969;BME280;5025;48.890;9.278;2022-12-18T11:06:15;100089.59;;;-4.63;72.43
9969;BME280;5025;48.890;9.278;2022-12-18T11:08:42;100085.53;;;-4.55;72.15
9969;BME280;5025;48.890;9.278;2022-12-18T11:11:34;100091.84;;;-4.57;72.37
9969;BME280;5025;48.890;9.278;2022-12-18T11:14:18;100080.25;;;-4.55;72.50
9969;BME280;5025;48.890;9.278;2022-12-18T11:16:49;100083.44;;;-4.50;72.61
9969;BME280;5025;48.890;9.278;2022-12-18T11:19:30;100067.56;;;-4.35;72.79
9969;BME280;5025;48.890;9.278;2022-12-18T11:21:57;100053.88;;;-4.27;72.85
9969;BME280;5025;48.890;9.278;2022-12-18T11:24:34;100049.03;;;-4.21;72.77
9969;BME280;5025;48.890;9.278;2022-12-18T11:27:02;100044.94;;;-4.12;72.99
9969;BME280;5025;48.890;9.278;2022-12-18T11:29:39;100043.34;;;-4.02;72.72
9969;BME280;5025;48.890;9.278;2022-12-18T11:32:39;100042.63;;;-3.91;73.11
9969;BME280;5025;48.890;9.278;2022-12-18T11:35:28;100040.84;;;-3.78;72.58
9969;BME280;5025;48.890;9.278;2022-12-18T11:38:03;100040.81;;;-3.65;72.73
9969;BME280;5025;48.890;9.278;2022-12-18T11:40:35;100044.31;;;-3.51;72.70
9969;BME280;5025;48.890;9.278;2022-12-18T11:43:16;100039.09;;;-3.40;72.45
9969;BME280;5025;48.890;9.278;2022-12-18T11:45:53;100037.63;;;-3.44;72.79
9969;BME280;5025;48.890;9.278;2022-12-18T11:48:30;100033.16;;;-3.31;72.89
9969;BME280;5025;48.890;9.278;2022-12-18T11:50:59;100025.31;;;-3.19;72.96
9969;BME280;5025;48.890;9.278;2022-12-18T11:53:27;100016.44;;;-3.18;73.03
9969;BME280;5025;48.890;9.278;2022-12-18T11:58:42;100020.28;;;-2.98;73.20
9969;BME280;5025;48.890;9.278;2022-12-18T12:06:56;100011.09;;;-3.06;73.36
9969;BME280;5025;48.890;9.278;2022-12-18T12:12:48;100006.22;;;-2.75;73.33
9969;BME280;5025;48.890;9.278;2022-12-18T12:15:42;99999.19;;;-2.63;73.06
9969;BME280;5025;48.890;9.278;2022-12-18T12:18:27;99999.34;;;-2.53;73.19
9969;BME280;5025;48.890;9.278;2022-12-18T12:29:18;99981.97;;;-2.44;73.29
9969;BME280;5025;48.890;9.278;2022-12-18T12:32:03;99987.84;;;-2.41;73.15
9969;BME280;5025;48.890;9.278;2022-12-18T12:37:29;99991.97;;;-2.25;73.08
9969;BME280;5025;48.890;9.278;2022-12-18T12:39:58;99991.38;;;-2.29;72.96
9969;BME280;5025;48.890;9.278;2022-12-18T12:42:29;99989.81;;;-2.31;73.09
9969;BME280;5025;48.890;9.278;2022-12-18T12:45:23;99994.28;;;-2.21;73.09
9969;BME280;5025;48.890;9.278;2022-12-18T12:47:52;99988.63;;;-2.16;72.86
9969;BME280;5025;48.890;9.278;2022-12-18T12:50:20;99990.09;;;-2.12;72.67
9969;BME280;5025;48.890;9.278;2022-12-18T12:52:50;99996.22;;;-2.11;72.83
9969;BME280;5025;48.890;9.278;2022-12-18T12:55:25;99998.03;;;-2.12;72.80
9969;BME280;5025;48.890;9.278;2022-12-18T12:58:05;99999.34;;;-2.06;72.89
9969;BME280;5025;48.890;9.278;2022-12-18T13:00:43;99997.94;;;-1.99;72.88
9969;BME280;5025;48.890;9.278;2022-12-18T13:05:58;99995.75;;;-1.94;72.41
9969;BME280;5025;48.890;9.278;2022-12-18T13:08:30;100001.44;;;-1.87;72.82
9969;BME280;5025;48.890;9.278;2022-12-18T13:11:00;100000.09;;;-1.82;72.50
9969;BME280;5025;48.890;9.278;2022-12-18T13:13:53;99993.50;;;-1.76;72.36
9969;BME280;5025;48.890;9.278;2022-12-18T13:16:20;99994.22;;;-1.74;72.08
9969;BME280;5025;48.890;9.278;2022-12-18T13:18:54;100005.66;;;-1.73;72.29
9969;BME280;5025;48.890;9.278;2022-12-18T13:21:27;100014.44;;;-1.73;72.16
9969;BME280;5025;48.890;9.278;2022-12-18T13:23:54;100003.13;;;-1.75;72.29
9969;BME280;5025;48.890;9.278;2022-12-18T13:28:51;99993.25;;;-1.73;72.22
9969;BME280;5025;48.890;9.278;2022-12-18T13:34:24;99992.06;;;-1.57;71.96
9969;BME280;5025;48.890;9.278;2022-12-18T13:36:51;99993.63;;;-1.55;71.85
9969;BME280;5025;48.890;9.278;2022-12-18T13:41:44;99990.00;;;-1.42;71.68
9969;BME280;5025;48.890;9.278;2022-12-18T13:44:24;99980.59;;;-1.35;71.55
9969;BME280;5025;48.890;9.278;2022-12-18T13:46:51;99974.91;;;-1.31;71.38
9969;BME280;5025;48.890;9.278;2022-12-18T13:49:27;99979.28;;;-1.30;71.60
9969;BME280;5025;48.890;9.278;2022-12-18T13:51:55;99973.97;;;-1.30;71.38
9969;BME280;5025;48.890;9.278;2022-12-18T13:54:33;99970.22;;;-1.27;71.37
9969;BME280;5025;48.890;9.278;2022-12-18T13:57:00;99968.66;;;-1.30;71.30
9969;BME280;5025;48.890;9.278;2022-12-18T13:59:33;99980.94;;;-1.29;71.41
9969;BME280;5025;48.890;9.278;2022-12-18T14:02:04;99974.34;;;-1.34;71.26
9969;BME280;5025;48.890;9.278;2022-12-18T14:04:33;99971.09;;;-1.38;71.39
9969;BME280;5025;48.890;9.278;2022-12-18T14:09:48;99985.06;;;-1.36;70.99
9969;BME280;5025;48.890;9.278;2022-12-18T14:12:26;99982.91;;;-1.42;71.16
9969;BME280;5025;48.890;9.278;2022-12-18T14:17:47;99986.16;;;-1.50;71.33
9969;BME280;5025;48.890;9.278;2022-12-18T14:20:17;99988.47;;;-1.56;70.91
9969;BME280;5025;48.890;9.278;2022-12-18T14:22:47;99991.34;;;-1.59;71.25
9969;BME280;5025;48.890;9.278;2022-12-18T14:28:04;99976.88;;;-1.67;71.12